Terminal Aerodrome Forecast
Issued by NWS

Home | Current Version | Previous Version | Text Only | Print | Product List | Glossary On
Versions: 1 2 3 4 5 6 7 8 9 10 11 12 13 14 15 16 17 18 19 20
000
FTUS42 KFFC 302328
TAFPDK
TAF
KPDK 302328Z 3100/3124 24007KT P6SM SCT040 SCT070
     FM310200 24005KT P6SM SCT250
     FM310900 24003KT P6SM SCT035
     FM311000 25003KT P6SM BKN035
     FM311300 25004KT P6SM SCT035 PROB30 3117/3123 SHRA BKN045=

USA.gov is the U.S. government's official web portal to all federal, state and local government web resources and services.